Orumieh, Iran
Current Conditions -  °F | °C
As of 5:00 AM on Wednesday 22 Oct 2014 (Local Time) from OITR Reporting Station
Haze Haze  
Wind Chill: -3°   Ceiling: Unl
Heat Index:   Visibility: 1.8mi
Dew Point: -1°   Wind: 5mph
Humidity: 93%   Direction: 260°W
Pressure: 30.09"   Gusts: NA
Location:  37.53°N, 45.08°E
Report Text: OITR 220200Z 26004KT 3000 BR SKC M00/M01 Q1019
Loading
Personal Weather Stations






























Interactive Weather Map
Tropical Storm Tracking
New forecast layout! Learn more

10-Day Weather Forecast

Advertisements
Track Severe Weather on mobile